createdAt,value
2023-06-23T00:01:07.815Z,4.93
2023-06-23T00:03:36.505Z,4.73
2023-06-23T00:06:05.143Z,4.53
2023-06-23T00:08:32.754Z,5.80
2023-06-23T00:11:00.307Z,4.67
2023-06-23T00:13:28.751Z,4.60
2023-06-23T00:15:58.732Z,5.53
2023-06-23T00:18:26.333Z,5.73
2023-06-23T00:20:55.717Z,4.33
2023-06-23T00:23:27.469Z,5.10
2023-06-23T00:25:55.149Z,5.47
2023-06-23T00:28:22.665Z,4.77
2023-06-23T00:30:51.004Z,6.30
2023-06-23T00:33:21.224Z,5.53
2023-06-23T00:35:49.025Z,5.10
2023-06-23T00:38:16.780Z,4.50
2023-06-23T00:40:45.188Z,6.30
2023-06-23T00:43:13.210Z,4.20
2023-06-23T00:45:41.760Z,5.93
2023-06-23T00:48:09.483Z,5.20
2023-06-23T00:50:38.481Z,5.53
2023-06-23T00:53:06.561Z,5.77
2023-06-23T00:55:38.537Z,5.90
2023-06-23T00:58:09.266Z,6.10
2023-06-23T01:00:37.117Z,5.60
2023-06-23T01:03:05.434Z,6.93
2023-06-23T01:05:36.166Z,6.63
2023-06-23T01:08:17.725Z,7.20
2023-06-23T01:10:53.610Z,5.83
2023-06-23T01:13:28.345Z,7.57
2023-06-23T01:15:59.288Z,6.73
2023-06-23T01:18:36.424Z,7.63
2023-06-23T01:21:06.911Z,7.13
2023-06-23T01:24:08.195Z,7.03
2023-06-23T01:26:50.685Z,6.60
2023-06-23T01:29:23.331Z,6.53
2023-06-23T01:31:57.154Z,7.60
2023-06-23T01:34:30.196Z,6.47
2023-06-23T01:37:05.153Z,8.27
2023-06-23T01:39:36.929Z,7.03
2023-06-23T01:42:09.592Z,7.50
2023-06-23T01:44:40.688Z,9.47
2023-06-23T01:47:16.717Z,8.70
2023-06-23T01:49:47.371Z,9.20
2023-06-23T01:52:16.390Z,10.50
2023-06-23T01:54:45.482Z,8.70
2023-06-23T01:57:16.564Z,8.53
2023-06-23T01:59:47.719Z,8.27
2023-06-23T02:02:17.970Z,9.03
2023-06-23T02:04:47.523Z,10.30
2023-06-23T02:07:19.258Z,10.57
2023-06-23T02:09:48.171Z,10.20
2023-06-23T02:12:18.649Z,8.60
2023-06-23T02:14:50.866Z,9.07
2023-06-23T02:17:19.872Z,8.10
2023-06-23T02:19:49.491Z,9.00
2023-06-23T02:22:21.406Z,9.30
2023-06-23T02:24:50.031Z,9.30
2023-06-23T02:27:19.401Z,9.73
2023-06-23T02:29:48.960Z,10.77
2023-06-23T02:32:18.403Z,10.60
2023-06-23T02:34:47.574Z,10.73
2023-06-23T02:37:21.597Z,8.80
2023-06-23T02:39:57.571Z,10.10
2023-06-23T02:42:31.936Z,10.70
2023-06-23T02:45:05.476Z,10.20
2023-06-23T02:47:38.377Z,10.00
2023-06-23T02:50:09.434Z,11.37
2023-06-23T02:52:37.893Z,9.00
2023-06-23T02:55:09.934Z,11.23
2023-06-23T02:57:39.780Z,11.07
2023-06-23T03:00:14.253Z,11.20
2023-06-23T03:02:43.702Z,10.73
2023-06-23T03:05:11.794Z,11.13
2023-06-23T03:07:40.065Z,11.60
2023-06-23T03:10:08.692Z,11.40
2023-06-23T03:12:36.621Z,10.93
2023-06-23T03:15:06.973Z,11.47
2023-06-23T03:17:41.031Z,10.63
2023-06-23T03:20:12.969Z,9.90
2023-06-23T03:22:45.571Z,10.27
2023-06-23T03:25:16.741Z,11.67
2023-06-23T03:27:45.330Z,10.47
2023-06-23T03:30:20.309Z,12.77
2023-06-23T03:32:52.064Z,10.37
2023-06-23T03:35:25.018Z,12.27
2023-06-23T03:38:00.431Z,12.30
2023-06-23T03:40:31.058Z,12.67
2023-06-23T03:43:07.182Z,10.70
2023-06-23T03:45:36.744Z,10.97
2023-06-23T03:48:10.147Z,11.37
2023-06-23T03:50:40.107Z,13.10
2023-06-23T03:53:09.082Z,12.33
2023-06-23T03:55:39.936Z,11.77
2023-06-23T03:58:09.831Z,11.97
2023-06-23T04:00:38.702Z,11.17
2023-06-23T04:03:09.714Z,11.93
2023-06-23T04:05:40.965Z,10.50
2023-06-23T04:08:11.201Z,11.50
2023-06-23T04:10:40.327Z,10.90
2023-06-23T04:13:10.533Z,10.47
2023-06-23T04:15:40.023Z,11.43
2023-06-23T04:18:12.811Z,9.90
2023-06-23T04:20:42.330Z,8.30
2023-06-23T04:23:12.274Z,7.10
2023-06-23T04:25:42.009Z,6.90
2023-06-23T04:28:13.513Z,5.27
2023-06-23T04:30:43.088Z,5.07
2023-06-23T04:33:12.106Z,4.13
2023-06-23T04:35:40.092Z,3.80
2023-06-23T04:38:13.041Z,3.83
2023-06-23T04:40:43.333Z,3.17
2023-06-23T04:43:14.597Z,2.67
2023-06-23T04:45:45.759Z,3.10
2023-06-23T04:48:15.811Z,3.30
2023-06-23T04:50:45.120Z,2.60
2023-06-23T04:53:18.882Z,3.00
2023-06-23T04:55:51.777Z,2.30
2023-06-23T04:58:22.405Z,2.53
2023-06-23T05:00:51.429Z,2.33
2023-06-23T05:03:22.553Z,2.80
2023-06-23T05:05:55.649Z,2.80
2023-06-23T05:08:27.285Z,3.43
2023-06-23T05:10:58.159Z,3.10
2023-06-23T05:16:22.348Z,2.80
2023-06-23T05:18:52.416Z,3.67
2023-06-23T05:21:23.150Z,2.87
2023-06-23T05:23:54.215Z,2.83
2023-06-23T05:26:25.734Z,3.30
2023-06-23T05:28:55.536Z,2.80
2023-06-23T05:31:25.461Z,2.67
2023-06-23T05:33:56.775Z,2.67
2023-06-23T05:36:25.494Z,2.80
2023-06-23T05:38:55.453Z,3.40
2023-06-23T05:41:23.140Z,3.03
2023-06-23T05:43:50.712Z,2.70
2023-06-23T05:46:21.737Z,3.50
2023-06-23T05:48:53.239Z,3.40
2023-06-23T05:51:27.421Z,3.00
2023-06-23T05:53:58.071Z,3.00
2023-06-23T05:56:32.561Z,3.10
2023-06-23T05:59:04.682Z,3.07
2023-06-23T06:01:36.733Z,3.23
2023-06-23T06:04:08.325Z,2.90
2023-06-23T06:06:40.081Z,3.17
2023-06-23T06:09:09.896Z,3.63
2023-06-23T06:11:39.407Z,3.17
2023-06-23T06:14:09.754Z,3.90
2023-06-23T06:16:38.359Z,3.03
2023-06-23T06:19:07.742Z,4.00
2023-06-23T06:21:39.356Z,3.67
2023-06-23T06:24:10.859Z,4.10
2023-06-23T06:26:38.445Z,4.00
2023-06-23T06:29:08.223Z,4.10
2023-06-23T06:31:36.216Z,3.77
2023-06-23T06:34:04.936Z,3.90
2023-06-23T06:36:36.270Z,4.10
2023-06-23T06:39:06.922Z,3.63
2023-06-23T06:41:36.809Z,3.63
2023-06-23T06:44:04.917Z,4.50
2023-06-23T06:46:32.515Z,4.60
2023-06-23T06:49:01.201Z,3.80
2023-06-23T06:51:29.704Z,4.07
2023-06-23T06:53:57.321Z,3.97
2023-06-23T06:56:26.682Z,3.67
2023-06-23T06:58:54.273Z,4.33
2023-06-23T07:01:21.993Z,4.00
2023-06-23T07:03:50.315Z,3.90
2023-06-23T07:06:17.931Z,3.70
2023-06-23T07:08:45.433Z,4.43
2023-06-23T07:11:14.260Z,5.70
2023-06-23T07:13:43.261Z,4.60
2023-06-23T07:16:10.818Z,4.43
2023-06-23T07:18:38.548Z,4.50
2023-06-23T07:21:06.123Z,6.30
2023-06-23T07:23:33.640Z,4.50
2023-06-23T07:26:01.150Z,4.83
2023-06-23T07:28:28.705Z,5.30
2023-06-23T07:30:57.625Z,4.40
2023-06-23T07:33:25.233Z,4.90
2023-06-23T07:35:52.755Z,5.10
2023-06-23T07:38:20.238Z,5.27
2023-06-23T07:40:48.366Z,5.23
2023-06-23T07:43:15.955Z,5.00
2023-06-23T07:45:43.560Z,5.47
2023-06-23T07:48:12.419Z,5.37
2023-06-23T07:50:39.944Z,5.50
2023-06-23T07:53:07.496Z,5.60
2023-06-23T07:55:35.068Z,5.57
2023-06-23T07:58:02.664Z,5.47
2023-06-23T08:00:30.462Z,5.77
2023-06-23T08:02:58.239Z,5.80
2023-06-23T08:05:27.427Z,6.27
2023-06-23T08:07:54.951Z,6.10
2023-06-23T08:10:22.561Z,4.63
2023-06-23T08:12:50.136Z,5.83
2023-06-23T08:15:17.655Z,6.40
2023-06-23T08:17:45.232Z,5.90
2023-06-23T08:20:13.589Z,5.77
2023-06-23T08:22:43.351Z,5.70
2023-06-23T08:25:11.002Z,5.20
2023-06-23T08:27:38.542Z,6.10
2023-06-23T08:30:08.084Z,6.00
2023-06-23T08:32:35.729Z,5.43
2023-06-23T08:35:03.702Z,5.87
2023-06-23T08:37:32.948Z,6.83
2023-06-23T08:40:02.049Z,7.13
2023-06-23T08:42:29.848Z,5.40
2023-06-23T08:45:00.442Z,6.30
2023-06-23T08:47:31.789Z,6.20
2023-06-23T08:50:00.518Z,6.20
2023-06-23T08:52:28.252Z,6.60
2023-06-23T08:54:55.879Z,6.03
2023-06-23T08:57:25.623Z,5.80
2023-06-23T08:59:53.154Z,6.50
2023-06-23T09:02:20.674Z,5.60
2023-06-23T09:04:48.360Z,5.53
2023-06-23T09:07:16.082Z,5.13
2023-06-23T09:09:46.794Z,5.40
2023-06-23T09:12:17.628Z,4.97
2023-06-23T09:14:46.511Z,4.30
2023-06-23T09:17:15.298Z,4.60
2023-06-23T09:19:44.403Z,4.10
2023-06-23T09:22:12.470Z,4.87
2023-06-23T09:24:44.636Z,4.80
2023-06-23T09:27:12.705Z,5.17
2023-06-23T09:29:40.198Z,4.17
2023-06-23T09:32:10.394Z,5.90
2023-06-23T09:34:39.496Z,6.10
2023-06-23T09:37:09.094Z,5.97
2023-06-23T09:39:38.090Z,5.63
2023-06-23T09:42:09.603Z,5.60
2023-06-23T09:44:38.767Z,6.77
2023-06-23T09:47:07.838Z,5.73
2023-06-23T09:49:41.175Z,6.47
2023-06-23T09:52:10.432Z,5.80
2023-06-23T09:54:40.544Z,5.23
2023-06-23T09:57:09.619Z,6.30
2023-06-23T09:59:39.889Z,6.03
2023-06-23T10:02:09.065Z,5.60
2023-06-23T10:04:37.067Z,5.20
2023-06-23T10:07:21.946Z,5.63
2023-06-23T10:10:01.716Z,5.27
2023-06-23T10:12:34.758Z,5.20
2023-06-23T10:15:02.308Z,5.20
2023-06-23T10:17:29.902Z,5.13
2023-06-23T10:19:57.876Z,5.13
2023-06-23T10:22:27.838Z,4.90
2023-06-23T10:24:56.312Z,5.60
2023-06-23T10:27:25.757Z,5.83
2023-06-23T10:29:55.100Z,5.53
2023-06-23T10:32:24.241Z,6.10
2023-06-23T10:34:52.455Z,5.53
2023-06-23T10:37:31.834Z,6.20
2023-06-23T10:40:15.319Z,5.77
2023-06-23T10:42:44.851Z,5.33
2023-06-23T10:45:12.752Z,5.20
2023-06-23T10:47:41.226Z,5.50
2023-06-23T10:50:10.656Z,5.70
2023-06-23T10:52:38.414Z,6.27
2023-06-23T10:55:37.972Z,6.53
2023-06-23T10:58:14.042Z,6.93
2023-06-23T11:00:46.405Z,6.63
2023-06-23T11:03:26.590Z,7.17
2023-06-23T11:05:55.372Z,6.37
2023-06-23T11:08:30.481Z,6.27
2023-06-23T11:11:07.940Z,7.23
2023-06-23T11:13:38.315Z,7.43
2023-06-23T11:16:07.330Z,7.80
2023-06-23T11:18:34.889Z,7.60
2023-06-23T11:21:04.848Z,6.47
2023-06-23T11:23:32.436Z,7.77
2023-06-23T11:26:00.284Z,8.00
2023-06-23T11:28:31.204Z,10.30
2023-06-23T11:31:07.550Z,6.77
2023-06-23T11:33:38.086Z,8.70
2023-06-23T11:36:07.775Z,9.27
2023-06-23T11:38:38.247Z,7.83
2023-06-23T11:41:05.960Z,7.50
2023-06-23T11:43:35.662Z,7.50
2023-06-23T11:46:08.910Z,10.07
2023-06-23T11:48:38.178Z,9.40
2023-06-23T11:51:07.682Z,9.70
2023-06-23T11:53:35.695Z,9.47
2023-06-23T11:56:03.858Z,10.27
2023-06-23T11:58:32.690Z,9.60
2023-06-23T12:01:02.516Z,7.80
2023-06-23T12:03:31.979Z,11.17
2023-06-23T12:06:01.154Z,9.57
2023-06-23T12:08:29.181Z,9.70
2023-06-23T12:10:57.758Z,8.90
2023-06-23T12:13:25.490Z,9.30
2023-06-23T12:15:58.282Z,12.07
2023-06-23T12:18:27.969Z,11.27
2023-06-23T12:20:55.610Z,9.83
2023-06-23T12:23:23.662Z,10.50
2023-06-23T12:25:52.073Z,12.30
2023-06-23T12:28:21.183Z,11.60
2023-06-23T12:30:51.626Z,11.57
2023-06-23T12:33:22.973Z,11.20
2023-06-23T12:36:00.174Z,11.27
2023-06-23T12:38:28.284Z,11.27
2023-06-23T12:40:56.993Z,12.70
2023-06-23T12:43:24.548Z,10.87
2023-06-23T12:45:55.222Z,9.60
2023-06-23T12:48:24.024Z,10.27
2023-06-23T12:50:55.201Z,11.43
2023-06-23T12:53:24.068Z,10.20
2023-06-23T12:55:52.176Z,9.00
2023-06-23T12:58:19.712Z,10.30
2023-06-23T13:00:47.231Z,10.40
2023-06-23T13:03:19.502Z,10.37
2023-06-23T13:05:48.306Z,11.47
2023-06-23T13:08:16.294Z,11.20
2023-06-23T13:10:45.419Z,9.60
2023-06-23T13:13:13.282Z,10.93
2023-06-23T13:15:40.992Z,10.80
2023-06-23T13:18:08.757Z,9.73
2023-06-23T13:20:36.677Z,7.83
2023-06-23T13:23:04.284Z,8.80
2023-06-23T13:25:32.041Z,9.70
2023-06-23T13:28:01.187Z,8.83
2023-06-23T13:30:29.450Z,9.60
2023-06-23T13:32:57.136Z,9.60
2023-06-23T13:35:24.878Z,8.30
2023-06-23T13:37:52.489Z,8.73
2023-06-23T13:40:19.985Z,8.97
2023-06-23T13:42:47.464Z,7.70
2023-06-23T13:45:16.289Z,10.50
2023-06-23T13:47:43.887Z,10.43
2023-06-23T13:50:15.753Z,9.23
2023-06-23T13:52:44.254Z,11.00
2023-06-23T13:55:13.851Z,9.70
2023-06-23T13:57:45.386Z,11.00
2023-06-23T14:00:16.432Z,7.87
2023-06-23T14:02:44.057Z,9.50
2023-06-23T14:05:13.279Z,7.50
2023-06-23T14:07:41.096Z,10.00
2023-06-23T14:10:09.611Z,9.27
2023-06-23T14:12:37.264Z,10.93
2023-06-23T14:15:05.589Z,10.27
2023-06-23T14:17:34.844Z,11.63
2023-06-23T14:20:02.536Z,12.70
2023-06-23T14:22:30.085Z,11.40
2023-06-23T14:24:57.590Z,11.20
2023-06-23T14:27:25.116Z,12.40
2023-06-23T14:29:52.691Z,9.20
2023-06-23T14:32:20.271Z,10.27
2023-06-23T14:34:49.230Z,12.70
2023-06-23T14:37:16.907Z,10.63
2023-06-23T14:39:44.426Z,11.97
2023-06-23T14:42:11.930Z,10.23
2023-06-23T14:44:39.445Z,11.63
2023-06-23T14:47:07.925Z,13.00
2023-06-23T14:49:35.724Z,12.27
2023-06-23T14:52:05.104Z,12.80
2023-06-23T14:54:32.933Z,12.47
2023-06-23T14:57:00.508Z,11.53
2023-06-23T14:59:28.096Z,10.93
2023-06-23T15:01:56.800Z,10.30
2023-06-23T15:04:24.612Z,9.33
2023-06-23T15:06:52.925Z,9.50
2023-06-23T15:09:22.003Z,9.73
2023-06-23T15:11:49.571Z,8.07
2023-06-23T15:14:17.138Z,8.03
2023-06-23T15:16:44.693Z,8.43
2023-06-23T15:19:12.228Z,8.83
2023-06-23T15:21:39.795Z,7.47
2023-06-23T15:24:07.911Z,6.27
2023-06-23T15:26:37.437Z,7.50
2023-06-23T15:29:06.913Z,7.23
2023-06-23T15:31:34.512Z,6.90
2023-06-23T15:34:02.057Z,7.27
2023-06-23T15:36:30.421Z,7.00
2023-06-23T15:38:58.722Z,8.37
2023-06-23T15:41:26.403Z,7.37
2023-06-23T15:43:55.292Z,7.27
2023-06-23T15:46:22.821Z,7.13
2023-06-23T15:48:50.404Z,6.57
2023-06-23T15:51:18.062Z,8.10
2023-06-23T15:53:45.633Z,6.67
2023-06-23T15:56:13.171Z,7.60
2023-06-23T15:58:40.736Z,6.83
2023-06-23T16:01:09.678Z,6.50
2023-06-23T16:03:37.432Z,6.50
2023-06-23T16:06:05.381Z,8.47
2023-06-23T16:08:34.528Z,8.10
2023-06-23T16:11:02.012Z,6.97
2023-06-23T16:13:29.507Z,6.00
2023-06-23T16:15:57.110Z,5.83
2023-06-23T16:18:26.056Z,5.27
2023-06-23T16:20:53.601Z,5.77
2023-06-23T16:23:21.129Z,4.50
2023-06-23T16:25:48.900Z,5.13
2023-06-23T16:28:16.597Z,5.10
2023-06-23T16:30:44.634Z,4.40
2023-06-23T16:33:12.202Z,4.60
2023-06-23T16:35:41.615Z,5.10
2023-06-23T16:38:09.186Z,3.70
2023-06-23T16:40:36.669Z,3.97
2023-06-23T16:43:05.488Z,5.20
2023-06-23T16:45:33.467Z,4.80
2023-06-23T16:48:01.309Z,4.43
2023-06-23T16:50:28.906Z,3.80
2023-06-23T16:52:57.808Z,5.07
2023-06-23T16:55:25.339Z,3.93
2023-06-23T16:57:52.886Z,4.40
2023-06-23T17:00:21.176Z,5.37
2023-06-23T17:02:48.959Z,4.30
2023-06-23T17:05:16.733Z,3.80
2023-06-23T17:07:44.273Z,4.60
2023-06-23T17:10:13.253Z,4.50
2023-06-23T17:12:40.848Z,3.60
2023-06-23T17:15:09.500Z,4.37
2023-06-23T17:17:37.082Z,4.40
2023-06-23T17:20:05.552Z,4.07
2023-06-23T17:22:33.249Z,3.80
2023-06-23T17:25:00.921Z,4.57
2023-06-23T17:27:29.801Z,4.33
2023-06-23T17:29:57.327Z,4.30
2023-06-23T17:32:24.869Z,3.83
2023-06-23T17:34:53.007Z,3.50
2023-06-23T17:37:20.520Z,3.60
2023-06-23T17:39:48.027Z,4.00
2023-06-23T17:42:15.538Z,4.37
2023-06-23T17:44:44.387Z,4.87
2023-06-23T17:47:11.939Z,3.90
2023-06-23T17:49:39.483Z,4.17
2023-06-23T17:52:07.812Z,3.63
2023-06-23T17:54:35.938Z,4.10
2023-06-23T17:57:03.804Z,3.87
2023-06-23T17:59:31.407Z,3.70
2023-06-23T18:02:02.213Z,4.00
2023-06-23T18:04:29.854Z,4.37
2023-06-23T18:06:57.593Z,4.27
2023-06-23T18:09:25.106Z,3.90
2023-06-23T18:11:52.697Z,3.90
2023-06-23T18:14:20.221Z,4.43
2023-06-23T18:16:47.834Z,3.87
2023-06-23T18:19:18.464Z,4.60
2023-06-23T18:21:48.066Z,4.40
2023-06-23T18:24:15.575Z,3.93
2023-06-23T18:26:43.272Z,4.30
2023-06-23T18:29:10.930Z,3.50
2023-06-23T18:31:39.563Z,3.67
2023-06-23T18:34:07.675Z,3.70
2023-06-23T18:36:36.565Z,3.80
2023-06-23T18:39:04.220Z,4.20
2023-06-23T18:41:34.358Z,3.20
2023-06-23T18:44:01.888Z,3.97
2023-06-23T18:46:29.418Z,3.87
2023-06-23T18:48:57.129Z,4.27
2023-06-23T18:51:24.619Z,3.73
2023-06-23T18:53:53.543Z,4.40
2023-06-23T18:56:21.100Z,3.70
2023-06-23T18:58:49.739Z,4.00
2023-06-23T19:01:17.285Z,3.50
2023-06-23T19:03:44.931Z,3.90
2023-06-23T19:06:13.742Z,3.30
2023-06-23T19:08:41.283Z,2.97
2023-06-23T19:11:10.183Z,3.20
2023-06-23T19:13:39.138Z,3.47
2023-06-23T19:16:06.670Z,3.47
2023-06-23T19:18:34.173Z,3.43
2023-06-23T19:21:01.883Z,3.30
2023-06-23T19:23:29.580Z,3.20
2023-06-23T19:25:57.113Z,3.43
2023-06-23T19:28:25.963Z,3.93
2023-06-23T19:30:53.630Z,3.50
2023-06-23T19:33:45.925Z,2.80
2023-06-23T19:36:13.445Z,3.13
2023-06-23T19:38:41.004Z,3.30
2023-06-23T19:41:08.706Z,3.00
2023-06-23T19:43:37.528Z,3.73
2023-06-23T19:46:05.074Z,3.93
2023-06-23T19:48:32.703Z,4.03
2023-06-23T19:51:00.202Z,3.30
2023-06-23T19:53:27.947Z,3.40
2023-06-23T19:55:55.473Z,3.40
2023-06-23T19:58:22.987Z,3.60
2023-06-23T20:00:51.914Z,3.07
2023-06-23T20:03:19.501Z,3.40
2023-06-23T20:05:47.164Z,3.40
2023-06-23T20:08:14.715Z,3.13
2023-06-23T20:10:42.257Z,3.13
2023-06-23T20:13:10.346Z,3.23
2023-06-23T20:15:37.837Z,3.77
2023-06-23T20:18:06.883Z,3.10
2023-06-23T20:20:34.709Z,3.20
2023-06-23T20:23:03.221Z,2.77
2023-06-23T20:25:30.795Z,3.30
2023-06-23T20:27:58.373Z,2.63
2023-06-23T20:30:25.869Z,3.10
2023-06-23T20:32:53.754Z,3.43
2023-06-23T20:35:22.849Z,3.40
2023-06-23T20:37:50.531Z,3.17
2023-06-23T20:40:19.945Z,3.50
2023-06-23T20:42:47.441Z,3.00
2023-06-23T20:45:16.867Z,4.37
2023-06-23T20:47:45.072Z,4.70
2023-06-23T20:50:12.785Z,3.90
2023-06-23T20:52:41.621Z,3.77
2023-06-23T20:55:09.770Z,3.30
2023-06-23T20:57:37.753Z,4.80
2023-06-23T21:00:09.355Z,4.57
2023-06-23T21:02:36.977Z,4.47
2023-06-23T21:05:04.877Z,4.37
2023-06-23T21:07:32.771Z,3.70
2023-06-23T21:10:02.787Z,5.90
2023-06-23T21:12:33.392Z,5.47
2023-06-23T21:15:05.571Z,5.90
2023-06-23T21:17:34.212Z,4.53
2023-06-23T21:20:01.818Z,5.50
2023-06-23T21:22:29.378Z,6.57
2023-06-23T21:24:56.898Z,6.70
2023-06-23T21:27:25.801Z,5.07
2023-06-23T21:29:53.788Z,6.20
2023-06-23T21:32:21.649Z,7.20
2023-06-23T21:34:49.187Z,6.90
2023-06-23T21:37:17.230Z,6.30
2023-06-23T21:39:44.907Z,6.57
2023-06-23T21:42:12.428Z,6.70
2023-06-23T21:44:41.886Z,6.80
2023-06-23T21:47:09.613Z,7.10
2023-06-23T21:49:37.108Z,6.43
2023-06-23T21:52:04.942Z,7.80
2023-06-23T21:54:32.443Z,7.37
2023-06-23T21:57:01.058Z,4.93
2023-06-23T21:59:28.593Z,7.47
2023-06-23T22:01:57.994Z,6.60
2023-06-23T22:04:25.563Z,7.10
2023-06-23T22:06:53.087Z,6.07
2023-06-23T22:09:20.645Z,5.60
2023-06-23T22:11:48.177Z,6.50
2023-06-23T22:14:18.644Z,7.30
2023-06-23T22:16:46.507Z,6.47
2023-06-23T22:19:15.450Z,6.83
2023-06-23T22:21:43.288Z,6.00
2023-06-23T22:24:10.802Z,6.40
2023-06-23T22:26:38.370Z,5.33
2023-06-23T22:29:06.119Z,6.50
2023-06-23T22:31:33.752Z,7.10
2023-06-23T22:34:01.418Z,6.40
2023-06-23T22:36:36.128Z,5.77
2023-06-23T22:39:04.928Z,5.20
2023-06-23T22:41:32.545Z,5.17
2023-06-23T22:44:00.079Z,4.70
2023-06-23T22:46:27.915Z,6.63
2023-06-23T22:48:57.227Z,5.77
2023-06-23T22:51:25.317Z,6.00
2023-06-23T22:53:54.104Z,5.70
2023-06-23T22:56:21.699Z,5.37
2023-06-23T22:58:49.659Z,5.53
2023-06-23T23:01:18.466Z,5.17
2023-06-23T23:03:46.032Z,5.20
2023-06-23T23:06:13.549Z,4.80
2023-06-23T23:08:41.119Z,4.80
2023-06-23T23:11:10.212Z,5.43
2023-06-23T23:13:37.747Z,4.90
2023-06-23T23:16:05.755Z,5.53
2023-06-23T23:18:33.274Z,5.13
2023-06-23T23:21:00.938Z,5.40
2023-06-23T23:23:32.289Z,5.60
2023-06-23T23:25:59.962Z,5.80
2023-06-23T23:28:30.047Z,5.37
2023-06-23T23:30:58.106Z,6.07
2023-06-23T23:33:25.842Z,5.40
2023-06-23T23:35:53.362Z,6.17
2023-06-23T23:38:21.070Z,6.53
2023-06-23T23:40:48.812Z,4.80
2023-06-23T23:43:16.303Z,5.80
2023-06-23T23:45:45.178Z,5.70
2023-06-23T23:48:12.719Z,5.47
2023-06-23T23:50:40.214Z,5.60
2023-06-23T23:53:07.752Z,5.13
2023-06-23T23:55:35.297Z,5.37
2023-06-23T23:58:02.997Z,5.87
